Time;durP1;ratioP1;P1;durP2;ratioP2;P2;SDS_P1;SDS_P2;PMS_P1;PMS_P2;Temp;Humidity;BMP_temperature;BMP_pressure;BME280_temperature;BME280_humidity;BME280_pressure;Samples;Min_cycle;Max_cycle;Signal;HPM_P1;HPM_P2
2023/08/04 00:00:37;;;;;;;1.40;1.40;;;16.10;99.90;;;;;;5144451;28;20193;-48
2023/08/04 00:03:08;;;;;;;1.70;1.70;;;16.20;99.90;;;;;;5139955;28;20201;-48
2023/08/04 00:05:39;;;;;;;2.10;2.00;;;16.30;99.90;;;;;;5141834;28;20209;-47
2023/08/04 00:08:09;;;;;;;2.23;2.13;;;16.40;99.90;;;;;;5145300;28;20233;-49
2023/08/04 00:10:40;;;;;;;2.00;1.90;;;16.50;99.90;;;;;;5145690;28;20177;-48
2023/08/04 00:13:10;;;;;;;1.60;1.60;;;16.60;99.90;;;;;;5143806;28;20193;-46
2023/08/04 00:15:41;;;;;;;2.20;1.70;;;16.70;99.90;;;;;;5145608;28;20193;-49
2023/08/04 00:18:12;;;;;;;2.20;2.00;;;16.70;99.90;;;;;;5143721;28;20642;-47
2023/08/04 00:20:42;;;;;;;1.90;1.80;;;16.70;99.90;;;;;;5141351;28;20193;-47
2023/08/04 00:23:13;;;;;;;2.30;2.10;;;16.70;99.90;;;;;;5146062;28;20185;-48
2023/08/04 00:25:43;;;;;;;1.80;1.70;;;16.70;99.90;;;;;;5146701;28;20271;-49
2023/08/04 00:28:14;;;;;;;1.90;1.80;;;16.70;99.90;;;;;;5147473;28;20761;-47
2023/08/04 00:30:45;;;;;;;2.03;1.93;;;16.80;99.90;;;;;;5145139;28;20178;-49
2023/08/04 00:33:15;;;;;;;1.37;1.37;;;16.80;99.90;;;;;;5144136;28;20181;-48
2023/08/04 00:35:46;;;;;;;1.80;1.70;;;16.90;99.90;;;;;;5144246;28;20208;-47
2023/08/04 00:38:16;;;;;;;2.50;2.40;;;16.90;99.90;;;;;;5145789;28;20288;-48
2023/08/04 00:40:47;;;;;;;1.83;1.73;;;17.00;99.90;;;;;;5145035;28;20198;-48
2023/08/04 00:43:18;;;;;;;2.73;1.77;;;17.10;99.90;;;;;;5143062;28;20188;-46
2023/08/04 00:45:48;;;;;;;2.50;1.50;;;17.10;99.90;;;;;;5147141;28;20205;-49
2023/08/04 00:48:19;;;;;;;1.90;1.80;;;17.20;99.90;;;;;;5139189;28;20201;-48
2023/08/04 00:50:50;;;;;;;2.00;1.50;;;17.20;99.90;;;;;;5143591;28;20217;-49
2023/08/04 00:53:21;;;;;;;6.07;2.37;;;17.20;99.90;;;;;;5136058;28;20640;-49
2023/08/04 00:55:53;;;;;;;1.93;1.80;;;17.20;99.90;;;;;;5141956;28;20189;-49
2023/08/04 00:58:23;;;;;;;1.73;1.63;;;17.30;99.90;;;;;;5144042;28;20452;-50
2023/08/04 01:00:55;;;;;;;2.00;1.60;;;17.30;99.90;;;;;;5144890;28;20520;-48
2023/08/04 01:03:27;;;;;;;2.73;2.40;;;17.40;99.90;;;;;;5144553;28;20213;-51
2023/08/04 01:06:17;;;;;;;2.83;1.90;;;17.40;99.90;;;;;;5127882;28;20469;-47
2023/08/04 01:09:07;;;;;;;1.50;1.50;;;17.50;99.90;;;;;;5145068;28;20416;-49
2023/08/04 01:11:51;;;;;;;2.17;2.07;;;17.40;99.90;;;;;;5141701;28;20763;-46
2023/08/04 01:14:22;;;;;;;1.67;1.67;;;17.40;99.90;;;;;;5146020;28;20448;-47
2023/08/04 01:16:53;;;;;;;3.03;1.50;;;17.40;99.90;;;;;;5136997;28;20538;-48
2023/08/04 01:19:24;;;;;;;3.63;2.17;;;17.40;99.90;;;;;;5139483;28;20433;-48
2023/08/04 01:21:54;;;;;;;2.30;2.10;;;17.40;99.90;;;;;;5142496;28;20189;-47
2023/08/04 01:24:26;;;;;;;2.87;2.17;;;17.50;99.90;;;;;;5139651;28;20197;-49
2023/08/04 01:26:57;;;;;;;6.53;2.03;;;17.50;99.90;;;;;;5143276;28;20209;-47
2023/08/04 01:29:29;;;;;;;2.70;2.50;;;17.50;99.90;;;;;;5140268;28;20793;-48
2023/08/04 01:32:00;;;;;;;3.37;1.77;;;17.50;99.90;;;;;;5143178;28;20425;-47
2023/08/04 01:34:31;;;;;;;1.43;1.33;;;17.50;99.90;;;;;;5141156;28;20446;-48
2023/08/04 01:37:02;;;;;;;2.43;2.27;;;17.50;99.90;;;;;;5143154;28;20212;-49
2023/08/04 01:39:32;;;;;;;3.00;2.00;;;17.20;99.90;;;;;;5140391;28;20186;-48
2023/08/04 01:42:04;;;;;;;2.53;2.13;;;17.50;99.90;;;;;;5140830;28;20233;-48
2023/08/04 01:44:34;;;;;;;2.53;1.80;;;17.40;99.90;;;;;;5137922;28;20221;-47
2023/08/04 01:47:07;;;;;;;4.73;2.40;;;17.50;99.90;;;;;;5142476;28;20456;-49
2023/08/04 01:49:38;;;;;;;2.47;1.97;;;17.50;99.90;;;;;;5147319;28;20188;-49
2023/08/04 01:52:08;;;;;;;3.03;2.80;;;17.50;99.90;;;;;;5152962;28;20444;-47
2023/08/04 01:54:39;;;;;;;3.83;2.90;;;17.50;99.90;;;;;;5154903;28;20185;-48
2023/08/04 01:57:11;;;;;;;7.10;2.60;;;17.50;99.90;;;;;;5149379;28;20208;-48
2023/08/04 01:59:41;;;;;;;1.90;1.83;;;17.50;99.90;;;;;;5132141;28;21292;-48
2023/08/04 02:02:12;;;;;;;10.83;2.77;;;17.50;99.90;;;;;;5148966;28;20813;-47
2023/08/04 02:04:43;;;;;;;6.63;1.97;;;17.50;99.90;;;;;;5153645;28;20208;-48
2023/08/04 02:07:13;;;;;;;5.60;2.20;;;17.50;99.90;;;;;;5150105;28;20673;-48
2023/08/04 02:09:45;;;;;;;4.77;2.40;;;17.50;99.90;;;;;;5167458;28;20192;-47
2023/08/04 02:12:15;;;;;;;2.67;2.50;;;17.50;99.90;;;;;;5150431;28;20182;-46
2023/08/04 02:14:46;;;;;;;3.00;2.03;;;17.50;99.90;;;;;;5152429;28;20460;-48
2023/08/04 02:17:17;;;;;;;3.23;2.50;;;17.50;99.90;;;;;;5142007;28;20300;-47
2023/08/04 02:19:48;;;;;;;4.20;1.93;;;17.60;99.90;;;;;;5147310;28;20181;-49
2023/08/04 02:22:19;;;;;;;2.60;2.50;;;17.50;99.90;;;;;;5161285;28;20449;-47
2023/08/04 02:24:49;;;;;;;2.40;2.23;;;17.50;99.90;;;;;;5150612;28;20333;-47
2023/08/04 02:27:20;;;;;;;6.73;2.73;;;17.60;99.90;;;;;;5148027;28;20197;-48
2023/08/04 02:29:50;;;;;;;2.27;2.13;;;17.50;99.90;;;;;;5151642;28;20186;-48
2023/08/04 02:32:22;;;;;;;2.30;2.20;;;17.50;99.90;;;;;;5147093;28;20722;-48
2023/08/04 02:34:52;;;;;;;3.90;2.73;;;17.60;99.90;;;;;;5148336;28;20192;-48
2023/08/04 02:37:23;;;;;;;2.50;2.37;;;17.50;99.90;;;;;;5147902;28;20461;-49
2023/08/04 02:39:54;;;;;;;6.53;2.97;;;17.60;99.90;;;;;;5146765;28;20297;-48
2023/08/04 02:42:24;;;;;;;2.50;2.07;;;17.60;99.90;;;;;;5145467;28;20713;-48
2023/08/04 02:44:55;;;;;;;3.57;2.90;;;17.50;99.90;;;;;;5148422;28;20260;-48
2023/08/04 02:47:26;;;;;;;5.20;3.00;;;17.70;99.90;;;;;;5150439;28;20197;-47
2023/08/04 02:49:56;;;;;;;4.23;2.07;;;17.50;99.90;;;;;;5145561;28;20190;-49
2023/08/04 02:52:27;;;;;;;3.00;2.40;;;17.50;99.90;;;;;;5145207;28;20178;-48
2023/08/04 02:54:58;;;;;;;2.60;2.50;;;17.50;99.90;;;;;;5149484;28;20185;-47
2023/08/04 02:57:31;;;;;;;5.57;2.60;;;17.50;99.90;;;;;;5146488;28;20213;-46
2023/08/04 03:00:02;;;;;;;2.70;2.50;;;17.60;99.90;;;;;;5141855;28;20555;-48
2023/08/04 03:02:33;;;;;;;3.70;2.47;;;17.50;99.90;;;;;;5141672;28;20537;-47
2023/08/04 03:05:04;;;;;;;2.13;2.00;;;17.60;99.90;;;;;;5145094;28;20563;-48
2023/08/04 03:07:35;;;;;;;8.27;2.30;;;17.60;99.90;;;;;;5144936;28;20638;-47
2023/08/04 03:10:06;;;;;;;3.03;2.70;;;17.50;99.90;;;;;;5140815;28;20186;-47
2023/08/04 03:12:37;;;;;;;4.63;2.67;;;17.60;99.90;;;;;;5143317;28;20647;-47
2023/08/04 03:15:08;;;;;;;4.33;3.57;;;17.60;99.90;;;;;;5146549;28;20456;-48
2023/08/04 03:17:39;;;;;;;2.87;2.67;;;17.60;99.90;;;;;;5159310;23;20524;-47
2023/08/04 03:20:10;;;;;;;10.20;3.00;;;17.60;99.90;;;;;;5150668;28;20445;-46
2023/08/04 03:22:40;;;;;;;2.80;2.50;;;17.60;99.90;;;;;;5158535;28;20192;-47
2023/08/04 03:25:11;;;;;;;5.60;3.13;;;17.60;99.90;;;;;;5159242;28;20468;-46
2023/08/04 03:27:42;;;;;;;3.13;2.80;;;17.50;99.90;;;;;;5152952;28;20213;-47
2023/08/04 03:30:14;;;;;;;9.07;3.07;;;17.50;99.90;;;;;;5162137;28;20212;-45
2023/08/04 03:32:45;;;;;;;5.50;2.67;;;17.60;99.90;;;;;;5157192;28;20672;-46
2023/08/04 03:35:16;;;;;;;3.63;2.67;;;17.60;99.90;;;;;;5153654;28;20447;-45
2023/08/04 03:37:47;;;;;;;8.30;2.70;;;17.40;99.90;;;;;;5157255;28;20239;-45
2023/08/04 03:40:18;;;;;;;2.97;2.77;;;17.30;99.90;;;;;;5157652;28;20440;-45
2023/08/04 03:42:49;;;;;;;5.03;3.53;;;17.20;99.90;;;;;;5158666;28;20487;-45
2023/08/04 03:45:20;;;;;;;10.23;3.37;;;17.10;99.90;;;;;;5163453;28;20216;-45
2023/08/04 03:47:50;;;;;;;2.90;2.70;;;17.10;99.90;;;;;;5158294;28;20200;-47
2023/08/04 03:50:24;;;;;;;13.60;3.47;;;17.00;99.90;;;;;;5151519;28;20405;-45
2023/08/04 03:52:55;;;;;;;5.63;3.33;;;17.00;99.90;;;;;;5149321;28;20239;-45
2023/08/04 03:55:26;;;;;;;4.90;3.17;;;17.10;99.90;;;;;;5155316;28;20512;-47
2023/08/04 03:57:57;;;;;;;4.73;2.80;;;17.10;99.90;;;;;;5156116;28;20210;-45
2023/08/04 04:00:28;;;;;;;4.73;3.23;;;17.10;99.90;;;;;;5159119;28;20501;-46
2023/08/04 04:02:59;;;;;;;12.00;3.33;;;17.10;99.90;;;;;;5161081;28;20189;-45
2023/08/04 04:05:29;;;;;;;7.47;3.17;;;17.10;99.90;;;;;;5165890;28;20204;-46
2023/08/04 04:08:00;;;;;;;9.97;4.00;;;17.10;99.90;;;;;;5147757;28;20608;-46
2023/08/04 04:10:31;;;;;;;4.40;3.50;;;17.10;99.90;;;;;;5157408;28;20239;-46
2023/08/04 04:13:02;;;;;;;6.20;3.30;;;17.10;99.90;;;;;;5147859;28;20182;-46
2023/08/04 04:15:35;;;;;;;6.20;3.30;;;17.10;99.90;;;;;;5150405;28;20189;-46
2023/08/04 04:18:06;;;;;;;4.13;2.90;;;17.10;99.90;;;;;;5154153;28;20474;-45
2023/08/04 04:20:37;;;;;;;3.50;3.23;;;17.10;99.90;;;;;;5158685;28;20209;-46
2023/08/04 04:23:08;;;;;;;6.23;2.43;;;17.10;99.90;;;;;;5158661;28;20260;-45
2023/08/04 04:25:38;;;;;;;10.43;4.43;;;17.20;99.90;;;;;;5159042;28;20465;-44
2023/08/04 04:28:09;;;;;;;7.70;3.83;;;17.30;99.90;;;;;;5153721;28;20672;-46
2023/08/04 04:30:40;;;;;;;4.20;3.30;;;17.30;99.90;;;;;;5158564;28;20185;-45
2023/08/04 04:33:11;;;;;;;4.70;3.03;;;17.20;99.90;;;;;;5153922;28;20615;-47
2023/08/04 04:35:50;;;;;;;6.80;3.80;;;17.30;99.90;;;;;;5145448;28;20463;-45
2023/08/04 04:38:26;;;;;;;5.63;3.30;;;17.30;99.90;;;;;;5161787;28;20823;-46
2023/08/04 04:41:02;;;;;;;3.00;2.80;;;17.40;99.90;;;;;;5161026;28;20584;-45
2023/08/04 04:43:33;;;;;;;4.37;3.27;;;17.60;99.90;;;;;;5159983;28;20441;-45
2023/08/04 04:46:04;;;;;;;5.17;3.47;;;17.70;99.90;;;;;;5148879;28;20872;-44
2023/08/04 04:48:35;;;;;;;8.37;3.27;;;17.80;99.90;;;;;;5155944;28;20452;-45
2023/08/04 04:51:06;;;;;;;11.70;3.50;;;17.90;99.90;;;;;;5144250;28;20488;-46
2023/08/04 04:53:36;;;;;;;8.43;2.47;;;18.00;99.90;;;;;;5156877;28;20546;-45
2023/08/04 04:56:07;;;;;;;3.70;2.60;;;18.00;99.90;;;;;;5157435;28;20228;-46
2023/08/04 04:58:38;;;;;;;12.57;7.57;;;18.20;99.90;;;;;;5151423;28;20304;-46
2023/08/04 05:01:09;;;;;;;6.77;3.30;;;18.60;99.90;;;;;;5154926;28;20186;-45
2023/08/04 05:03:39;;;;;;;5.73;3.13;;;19.10;99.90;;;;;;5146021;28;20216;-46
2023/08/04 05:06:10;;;;;;;3.30;3.00;;;19.30;99.90;;;;;;5150436;28;20210;-46
2023/08/04 05:08:41;;;;;;;2.97;2.70;;;19.30;99.90;;;;;;5138875;28;20335;-46
2023/08/04 05:11:12;;;;;;;5.07;2.60;;;19.20;99.90;;;;;;5155660;28;20272;-47
2023/08/04 05:13:43;;;;;;;3.13;2.90;;;19.10;99.90;;;;;;5156960;28;20439;-47
2023/08/04 05:16:14;;;;;;;7.83;2.80;;;18.90;99.90;;;;;;5149945;28;20211;-46
2023/08/04 05:18:44;;;;;;;14.63;3.10;;;18.70;99.90;;;;;;5151836;28;20208;-46
2023/08/04 05:21:15;;;;;;;3.23;2.47;;;18.60;99.90;;;;;;5140276;28;20604;-46
2023/08/04 05:23:46;;;;;;;8.07;2.57;;;18.40;99.90;;;;;;5135186;28;20201;-46
2023/08/04 05:26:17;;;;;;;5.50;2.43;;;18.20;99.90;;;;;;5144600;28;20328;-46
2023/08/04 05:28:48;;;;;;;2.80;2.60;;;18.10;99.90;;;;;;5147909;28;20203;-46
2023/08/04 05:31:18;;;;;;;2.53;2.27;;;18.10;99.90;;;;;;5146046;28;20688;-46
2023/08/04 05:33:49;;;;;;;7.03;3.57;;;18.10;99.90;;;;;;5147037;28;20245;-46
2023/08/04 05:36:20;;;;;;;2.73;2.53;;;18.20;99.90;;;;;;5146389;28;20178;-46
2023/08/04 05:38:51;;;;;;;9.73;4.30;;;18.20;99.90;;;;;;5147130;28;20461;-47
2023/08/04 05:41:23;;;;;;;7.77;2.67;;;18.10;99.90;;;;;;5140905;28;20181;-46
2023/08/04 05:43:54;;;;;;;3.00;2.47;;;18.00;99.90;;;;;;5138523;28;20202;-46
2023/08/04 05:46:25;;;;;;;4.97;2.47;;;17.90;99.90;;;;;;5141895;28;20953;-45
2023/08/04 05:48:56;;;;;;;6.63;2.90;;;18.00;99.90;;;;;;5142445;28;20192;-46
2023/08/04 05:51:27;;;;;;;7.67;2.47;;;18.10;99.90;;;;;;5134899;28;20198;-47
2023/08/04 05:53:58;;;;;;;9.67;3.00;;;18.20;99.90;;;;;;5141694;28;20668;-46
2023/08/04 05:56:28;;;;;;;7.37;2.87;;;18.30;99.90;;;;;;5143268;28;20184;-46
2023/08/04 05:58:59;;;;;;;10.30;3.40;;;18.50;99.90;;;;;;5138220;28;20185;-46
2023/08/04 06:01:30;;;;;;;10.87;3.00;;;18.70;99.90;;;;;;5142723;28;20563;-46
2023/08/04 06:04:01;;;;;;;2.90;2.20;;;19.00;99.90;;;;;;5140843;28;20258;-46
2023/08/04 06:06:32;;;;;;;5.23;2.73;;;20.20;99.90;;;;;;5145906;28;20202;-45
2023/08/04 06:09:03;;;;;;;4.20;2.37;;;20.50;99.90;;;;;;5143347;28;20673;-46
2023/08/04 06:11:33;;;;;;;5.60;2.67;;;20.60;99.90;;;;;;5143467;28;20178;-46
2023/08/04 06:14:08;;;;;;;6.33;2.50;;;20.80;99.90;;;;;;5144713;28;20996;-45
2023/08/04 06:16:40;;;;;;;6.57;3.40;;;20.70;99.90;;;;;;5143088;28;20558;-45
2023/08/04 06:19:11;;;;;;;4.97;2.83;;;20.70;99.90;;;;;;5127894;28;20447;-46
2023/08/04 06:21:43;;;;;;;8.70;6.13;;;20.50;99.90;;;;;;5144917;28;20921;-46
2023/08/04 06:24:26;;;;;;;6.80;2.93;;;20.40;99.90;;;;;;5127853;28;20460;-46
2023/08/04 06:26:58;;;;;;;9.83;3.87;;;20.50;99.90;;;;;;5139737;28;20469;-47
2023/08/04 06:29:30;;;;;;;4.07;2.50;;;21.80;99.90;;;;;;5139631;28;20425;-46
2023/08/04 06:32:02;;;;;;;3.17;2.20;;;21.90;99.90;;;;;;5132730;28;20933;-45
2023/08/04 06:34:35;;;;;;;3.30;2.23;;;21.50;99.90;;;;;;5142661;28;20439;-47
2023/08/04 06:37:08;;;;;;;10.53;3.43;;;21.00;99.90;;;;;;5130781;28;20572;-46
2023/08/04 06:39:42;;;;;;;9.50;3.53;;;20.50;99.90;;;;;;5144946;28;20429;-47
2023/08/04 06:42:14;;;;;;;6.10;3.07;;;20.20;99.90;;;;;;5153910;28;20488;-47
2023/08/04 06:44:47;;;;;;;3.33;1.83;;;20.10;99.90;;;;;;5157303;28;20555;-45
2023/08/04 06:47:18;;;;;;;10.87;4.20;;;19.90;99.90;;;;;;5146550;28;20464;-45
2023/08/04 06:49:50;;;;;;;3.70;2.37;;;20.00;99.90;;;;;;5157184;28;20429;-48
2023/08/04 06:52:22;;;;;;;3.57;3.27;;;20.10;99.90;;;;;;5145523;28;20552;-45
2023/08/04 06:54:54;;;;;;;4.37;2.63;;;20.20;99.90;;;;;;5146380;28;20437;-47
2023/08/04 06:57:25;;;;;;;11.40;2.50;;;20.10;99.90;;;;;;5148358;28;20460;-47
2023/08/04 06:59:56;;;;;;;5.83;1.97;;;20.00;99.90;;;;;;5142044;28;20516;-46
2023/08/04 07:02:27;;;;;;;4.33;2.67;;;20.10;99.90;;;;;;5125342;28;20190;-47
2023/08/04 07:04:58;;;;;;;8.20;3.90;;;20.10;99.90;;;;;;5147091;28;20468;-46
2023/08/04 07:07:32;;;;;;;2.83;2.40;;;19.90;99.90;;;;;;5121195;28;20953;-47
2023/08/04 07:10:03;;;;;;;3.67;2.50;;;21.80;99.90;;;;;;5145695;28;20574;-47
2023/08/04 07:12:35;;;;;;;5.00;2.53;;;23.60;99.90;;;;;;5144190;28;20564;-48
2023/08/04 07:15:07;;;;;;;5.27;2.03;;;23.40;99.90;;;;;;5149497;28;20492;-46
2023/08/04 07:17:38;;;;;;;4.10;1.90;;;23.80;99.90;;;;;;5129698;28;20560;-47
2023/08/04 07:20:09;;;;;;;15.70;3.03;;;24.60;99.90;;;;;;5142328;28;20545;-47
2023/08/04 07:22:40;;;;;;;3.93;1.97;;;24.10;99.90;;;;;;5135733;28;20214;-47
2023/08/04 07:25:10;;;;;;;2.33;2.00;;;23.30;99.90;;;;;;5159150;28;21031;-46
2023/08/04 07:27:42;;;;;;;13.23;3.67;;;22.50;99.90;;;;;;5138244;28;20554;-47
2023/08/04 07:30:13;;;;;;;3.23;2.23;;;21.30;99.90;;;;;;5134363;28;20190;-48
2023/08/04 07:32:44;;;;;;;4.70;1.80;;;21.00;99.90;;;;;;5154333;28;20458;-46
2023/08/04 07:35:14;;;;;;;3.20;2.83;;;20.70;99.90;;;;;;5144725;28;20985;-46
2023/08/04 07:37:45;;;;;;;2.20;1.73;;;20.60;99.90;;;;;;5144530;28;21589;-46
2023/08/04 07:40:16;;;;;;;2.43;2.20;;;21.70;99.90;;;;;;5143217;28;20190;-46
2023/08/04 07:42:47;;;;;;;4.30;1.83;;;24.30;99.90;;;;;;5146344;28;20213;-47
2023/08/04 07:45:18;;;;;;;6.90;2.47;;;26.10;97.30;;;;;;5159830;28;20897;-45
2023/08/04 07:47:49;;;;;;;3.53;1.77;;;28.10;90.30;;;;;;5147336;28;20344;-46
2023/08/04 07:50:19;;;;;;;6.73;1.80;;;27.70;79.20;;;;;;5140984;28;20196;-46
2023/08/04 07:52:51;;;;;;;1.50;1.50;;;27.20;78.40;;;;;;5137543;28;20189;-47
2023/08/04 07:55:22;;;;;;;1.93;1.77;;;26.20;77.60;;;;;;5139929;28;20557;-47
2023/08/04 07:57:53;;;;;;;2.67;2.20;;;25.10;84.30;;;;;;5140752;28;20457;-46
2023/08/04 08:00:24;;;;;;;5.67;2.27;;;24.50;88.80;;;;;;5138747;28;20618;-46
2023/08/04 08:02:55;;;;;;;4.90;2.27;;;23.80;88.20;;;;;;5145800;28;20567;-47
2023/08/04 08:05:26;;;;;;;1.57;1.57;;;22.90;90.90;;;;;;5138838;28;20209;-46
2023/08/04 08:07:59;;;;;;;3.07;1.90;;;22.30;94.70;;;;;;5123259;28;20971;-46
2023/08/04 08:10:30;;;;;;;3.27;1.60;;;22.10;97.80;;;;;;5145848;28;20194;-46
2023/08/04 08:13:02;;;;;;;4.70;3.20;;;24.00;95.00;;;;;;5149325;28;20438;-47
2023/08/04 08:15:33;;;;;;;5.73;2.30;;;25.60;90.70;;;;;;5138710;28;20232;-46
2023/08/04 08:18:04;;;;;;;2.43;1.50;;;25.60;86.90;;;;;;5139973;28;20563;-47
2023/08/04 08:20:38;;;;;;;2.70;1.30;;;25.80;86.70;;;;;;5142248;28;20208;-47
2023/08/04 08:23:10;;;;;;;4.10;2.40;;;25.60;85.20;;;;;;5146485;28;20279;-46
2023/08/04 08:25:41;;;;;;;2.03;1.80;;;25.10;87.00;;;;;;5137829;28;20477;-46
2023/08/04 08:28:12;;;;;;;2.93;2.17;;;25.00;90.10;;;;;;5152960;28;20475;-47
2023/08/04 08:30:43;;;;;;;4.93;1.97;;;25.00;87.00;;;;;;5146205;28;20937;-47
2023/08/04 08:33:13;;;;;;;2.10;2.00;;;24.90;88.90;;;;;;5142616;28;20612;-46
2023/08/04 08:35:44;;;;;;;3.03;1.70;;;24.90;90.00;;;;;;5137051;28;20193;-46
2023/08/04 08:38:15;;;;;;;8.47;2.70;;;24.60;90.10;;;;;;5134130;28;20197;-48
2023/08/04 08:40:49;;;;;;;2.73;1.90;;;23.90;90.40;;;;;;5144458;28;20977;-47
2023/08/04 08:43:20;;;;;;;5.13;2.30;;;23.70;90.60;;;;;;5131860;28;21449;-48
2023/08/04 08:45:55;;;;;;;2.47;2.00;;;23.20;91.20;;;;;;5141566;28;20465;-46
2023/08/04 08:48:26;;;;;;;6.63;2.30;;;23.80;91.80;;;;;;5127710;28;20197;-46
2023/08/04 08:51:02;;;;;;;3.80;1.53;;;24.90;88.20;;;;;;5135656;28;20437;-46
2023/08/04 08:53:34;;;;;;;2.57;2.17;;;25.60;85.30;;;;;;5135455;28;20436;-47
2023/08/04 08:56:08;;;;;;;3.10;1.73;;;25.60;82.40;;;;;;5130274;28;20438;-46
2023/08/04 08:58:40;;;;;;;4.10;1.90;;;25.30;84.50;;;;;;5145415;28;20472;-46
2023/08/04 09:01:11;;;;;;;2.53;2.00;;;25.30;85.40;;;;;;5136809;28;20441;-47
2023/08/04 09:03:43;;;;;;;6.90;1.50;;;25.20;84.00;;;;;;5138559;28;20981;-47
2023/08/04 09:06:14;;;;;;;3.50;1.90;;;25.10;82.90;;;;;;5134247;28;20989;-48
2023/08/04 09:08:45;;;;;;;5.37;2.10;;;25.20;84.60;;;;;;5151760;28;20464;-46
2023/08/04 09:11:16;;;;;;;2.43;1.47;;;25.50;82.90;;;;;;5147584;28;20256;-47
2023/08/04 09:13:49;;;;;;;2.57;1.77;;;25.50;78.60;;;;;;5134370;28;20173;-46
2023/08/04 09:16:32;;;;;;;4.20;2.30;;;25.40;80.20;;;;;;5138350;28;20446;-47
2023/08/04 09:19:05;;;;;;;2.87;1.83;;;25.20;81.30;;;;;;5140837;28;20456;-45
2023/08/04 09:21:37;;;;;;;5.50;2.30;;;24.80;82.10;;;;;;5144123;28;20437;-46
2023/08/04 09:24:10;;;;;;;1.90;1.60;;;24.90;82.90;;;;;;5140256;28;20549;-46
2023/08/04 09:26:45;;;;;;;1.57;1.47;;;25.10;83.10;;;;;;5152123;28;20456;-46
2023/08/04 09:29:16;;;;;;;1.57;1.47;;;25.10;79.60;;;;;;5124241;28;20498;-46
2023/08/04 09:31:48;;;;;;;2.37;2.17;;;25.30;79.70;;;;;;5130815;28;20531;-47
2023/08/04 09:34:19;;;;;;;8.43;2.17;;;25.10;79.50;;;;;;5137693;28;20491;-46
2023/08/04 09:36:49;;;;;;;7.60;1.67;;;24.80;78.70;;;;;;5141220;28;20456;-46
2023/08/04 09:39:20;;;;;;;3.23;2.20;;;24.60;80.50;;;;;;5142591;28;20268;-47
2023/08/04 09:41:51;;;;;;;2.00;1.53;;;24.80;79.90;;;;;;5138505;28;20196;-45
2023/08/04 09:44:34;;;;;;;1.53;1.43;;;24.80;79.50;;;;;;5137972;28;20994;-47
2023/08/04 09:47:06;;;;;;;6.13;3.50;;;25.20;80.10;;;;;;5125497;28;20201;-46
2023/08/04 09:49:37;;;;;;;4.73;1.80;;;25.50;77.40;;;;;;5136583;28;20505;-46
2023/08/04 09:52:08;;;;;;;1.87;1.77;;;25.60;77.50;;;;;;5147286;28;20969;-46
2023/08/04 09:54:38;;;;;;;2.23;2.10;;;25.90;77.40;;;;;;5138197;28;20491;-47
2023/08/04 09:57:10;;;;;;;2.00;1.87;;;26.20;77.50;;;;;;5133411;28;20202;-47
2023/08/04 09:59:41;;;;;;;1.70;1.57;;;26.40;75.00;;;;;;5138610;28;20190;-47
2023/08/04 10:02:13;;;;;;;6.13;1.30;;;26.20;72.40;;;;;;5134472;28;20441;-46
2023/08/04 10:04:49;;;;;;;6.10;1.90;;;25.90;73.70;;;;;;5140049;28;20480;-47
2023/08/04 10:07:21;;;;;;;4.47;2.33;;;25.70;73.30;;;;;;5142622;28;20787;-47
2023/08/04 10:10:00;;;;;;;11.13;3.40;;;25.60;73.60;;;;;;5133928;28;20440;-46
2023/08/04 10:12:34;;;;;;;3.43;1.63;;;25.00;73.50;;;;;;5138903;28;20464;-46
2023/08/04 10:15:07;;;;;;;2.30;2.10;;;24.10;75.30;;;;;;5134088;28;20487;-47
2023/08/04 10:17:41;;;;;;;3.07;1.80;;;23.60;77.00;;;;;;5126967;28;20491;-46
2023/08/04 10:20:12;;;;;;;9.97;3.33;;;23.30;79.50;;;;;;5131296;28;20456;-47
2023/08/04 10:22:44;;;;;;;7.30;3.77;;;23.20;80.20;;;;;;5134820;28;21096;-47
2023/08/04 10:25:16;;;;;;;6.33;3.40;;;22.60;82.30;;;;;;5135939;28;20472;-47
2023/08/04 10:27:48;;;;;;;16.90;3.10;;;22.40;85.10;;;;;;5134848;28;20884;-46
2023/08/04 10:30:20;;;;;;;8.40;4.70;;;22.20;89.40;;;;;;5136637;28;20428;-47
2023/08/04 10:32:51;;;;;;;12.67;4.00;;;22.00;91.70;;;;;;5136119;28;20432;-47
2023/08/04 10:35:22;;;;;;;5.93;2.60;;;21.70;98.90;;;;;;5142540;28;20472;-46
2023/08/04 10:37:59;;;;;;;3.03;2.80;;;21.10;99.90;;;;;;5144142;28;20452;-45
2023/08/04 10:40:32;;;;;;;2.77;2.57;;;20.70;99.90;;;;;;5141724;28;20440;-47
2023/08/04 10:43:06;;;;;;;2.80;2.57;;;20.30;99.90;;;;;;5141680;28;20450;-48
2023/08/04 10:45:53;;;;;;;4.17;2.30;;;20.20;99.90;;;;;;5144263;28;20473;-46
2023/08/04 10:48:26;;;;;;;4.00;3.00;;;20.20;99.90;;;;;;5145470;28;21047;-46
2023/08/04 10:50:57;;;;;;;2.97;2.80;;;20.50;99.90;;;;;;5137961;28;20429;-47
2023/08/04 10:53:29;;;;;;;8.93;5.23;;;20.80;99.90;;;;;;5137705;28;20964;-47
2023/08/04 10:56:01;;;;;;;2.87;2.67;;;21.20;99.90;;;;;;5141333;28;20197;-47
2023/08/04 10:58:32;;;;;;;2.70;1.97;;;21.60;99.90;;;;;;5141571;28;20487;-47
2023/08/04 11:01:03;;;;;;;3.03;2.57;;;22.00;99.90;;;;;;5123619;28;20860;-47
2023/08/04 11:03:34;;;;;;;3.30;2.20;;;22.10;99.90;;;;;;5147532;28;20444;-47
2023/08/04 11:06:06;;;;;;;3.70;2.47;;;22.20;99.90;;;;;;5143054;28;20536;-47
2023/08/04 11:08:37;;;;;;;5.80;2.53;;;22.30;99.90;;;;;;5146227;28;20453;-47
2023/08/04 11:11:08;;;;;;;2.60;2.40;;;22.40;99.90;;;;;;5146059;28;20607;-48
2023/08/04 11:13:39;;;;;;;2.03;1.80;;;22.80;99.90;;;;;;5147474;28;20512;-47
2023/08/04 11:16:16;;;;;;;3.40;3.10;;;23.10;99.90;;;;;;5147872;28;20182;-46
2023/08/04 11:18:47;;;;;;;3.73;2.50;;;23.40;99.90;;;;;;5141877;28;20484;-47
2023/08/04 11:21:18;;;;;;;9.30;1.83;;;23.40;99.90;;;;;;5141429;28;20445;-47
2023/08/04 11:23:49;;;;;;;1.50;1.50;;;23.10;98.80;;;;;;5139082;28;20435;-48
2023/08/04 11:26:21;;;;;;;3.97;2.67;;;23.00;99.10;;;;;;5134760;28;20217;-47
2023/08/04 11:28:56;;;;;;;1.53;1.40;;;22.70;99.40;;;;;;5144189;28;21830;-47
2023/08/04 11:31:32;;;;;;;3.30;1.60;;;22.60;96.90;;;;;;5136888;28;20451;-47
2023/08/04 11:34:04;;;;;;;1.80;1.70;;;22.40;98.00;;;;;;5146329;28;20421;-46
2023/08/04 11:36:35;;;;;;;9.20;2.10;;;22.30;99.10;;;;;;5140593;28;20517;-47
2023/08/04 11:39:09;;;;;;;4.13;1.60;;;22.20;98.70;;;;;;5144772;28;20444;-47
2023/08/04 11:41:42;;;;;;;4.47;1.63;;;22.20;96.50;;;;;;5140398;28;20613;-47
2023/08/04 11:44:15;;;;;;;2.97;1.57;;;22.30;97.40;;;;;;5141959;28;20442;-46
2023/08/04 11:46:46;;;;;;;3.87;2.50;;;22.40;97.00;;;;;;5144145;28;20449;-46
2023/08/04 11:49:17;;;;;;;3.10;2.27;;;22.60;95.30;;;;;;5145078;28;20500;-48
2023/08/04 11:51:49;;;;;;;11.77;2.50;;;22.60;94.20;;;;;;5142225;28;20177;-48
2023/08/04 11:54:23;;;;;;;4.87;2.10;;;22.80;95.40;;;;;;5143339;28;20212;-46
2023/08/04 11:56:58;;;;;;;5.23;2.80;;;23.30;96.70;;;;;;5140015;28;20499;-46
2023/08/04 11:59:29;;;;;;;7.73;3.20;;;23.70;94.70;;;;;;5143975;28;20440;-46
2023/08/04 12:02:08;;;;;;;2.40;2.20;;;23.90;93.10;;;;;;5145511;28;20909;-46
2023/08/04 12:04:39;;;;;;;4.20;2.20;;;24.10;92.50;;;;;;5146354;28;20488;-47
2023/08/04 12:07:10;;;;;;;3.67;2.60;;;24.60;92.10;;;;;;5146060;28;20507;-46
2023/08/04 12:09:47;;;;;;;25.77;5.70;;;25.00;92.10;;;;;;5146667;28;20849;-46
2023/08/04 12:12:37;;;;;;;9.30;2.40;;;25.50;90.10;;;;;;5146440;28;20432;-47
2023/08/04 12:15:11;;;;;;;4.57;2.27;;;25.70;88.70;;;;;;5141427;28;20449;-46
2023/08/04 12:17:43;;;;;;;3.00;2.20;;;25.70;89.10;;;;;;5148528;28;20876;-46
2023/08/04 12:20:14;;;;;;;1.67;1.57;;;25.80;86.70;;;;;;5143707;28;20497;-47
2023/08/04 12:22:45;;;;;;;2.37;1.60;;;25.40;86.20;;;;;;5146838;28;20551;-47
2023/08/04 12:25:15;;;;;;;2.73;1.73;;;24.90;88.70;;;;;;5140365;28;20756;-48
2023/08/04 12:27:49;;;;;;;1.87;1.43;;;24.60;89.10;;;;;;5146198;28;20305;-46
2023/08/04 12:30:20;;;;;;;5.17;1.70;;;24.40;90.10;;;;;;5137777;28;20193;-46
2023/08/04 12:32:51;;;;;;;2.60;2.33;;;24.30;90.70;;;;;;5126017;28;20964;-47
2023/08/04 12:35:22;;;;;;;2.63;2.43;;;24.40;91.50;;;;;;5124613;28;21015;-46
2023/08/04 12:37:53;;;;;;;2.20;2.10;;;24.50;91.50;;;;;;5129680;28;20592;-46
2023/08/04 12:40:24;;;;;;;1.90;1.80;;;24.70;90.70;;;;;;5137717;28;20480;-46
2023/08/04 12:42:55;;;;;;;2.77;1.97;;;24.90;90.50;;;;;;5139953;28;20186;-46
2023/08/04 12:45:26;;;;;;;1.73;1.60;;;24.90;90.10;;;;;;5137701;28;20240;-46
2023/08/04 12:47:58;;;;;;;4.83;2.10;;;24.70;85.10;;;;;;5142386;28;20858;-47
2023/08/04 12:50:29;;;;;;;4.70;1.70;;;24.30;84.40;;;;;;5140784;28;20541;-47
2023/08/04 12:53:00;;;;;;;4.23;2.20;;;23.90;86.40;;;;;;5144591;28;20441;-46
2023/08/04 12:55:30;;;;;;;2.73;1.90;;;23.90;88.60;;;;;;5146390;28;20217;-45
2023/08/04 12:58:02;;;;;;;5.47;1.50;;;24.20;89.80;;;;;;5138225;28;20252;-45
2023/08/04 13:00:33;;;;;;;1.70;1.67;;;24.10;89.00;;;;;;5130282;28;20442;-46
2023/08/04 13:03:04;;;;;;;8.03;2.50;;;24.30;90.00;;;;;;5121056;28;20559;-46
2023/08/04 13:05:35;;;;;;;3.90;2.00;;;24.40;89.60;;;;;;5125796;28;20464;-46
2023/08/04 13:08:06;;;;;;;7.50;1.40;;;24.40;89.50;;;;;;5133411;28;20206;-46